sensor_id;sensor_type;location;lat;lon;timestamp;P1;durP1;ratioP1;P2;durP2;ratioP2
69244;SDS011;56357;52.304;4.870;2023-02-28T00:02:23;2.17;;;0.30;;
69244;SDS011;56357;52.304;4.870;2023-02-28T00:04:49;2.42;;;0.20;;
69244;SDS011;56357;52.304;4.870;2023-02-28T00:07:18;2.17;;;0.30;;
69244;SDS011;56357;52.304;4.870;2023-02-28T00:09:45;2.30;;;0.25;;
69244;SDS011;56357;52.304;4.870;2023-02-28T00:12:11;3.17;;;0.30;;
69244;SDS011;56357;52.304;4.870;2023-02-28T00:14:38;1.90;;;0.20;;
69244;SDS011;56357;52.304;4.870;2023-02-28T00:17:04;2.35;;;0.30;;
69244;SDS011;56357;52.304;4.870;2023-02-28T00:19:31;2.45;;;0.30;;
69244;SDS011;56357;52.304;4.870;2023-02-28T00:21:57;2.70;;;0.30;;
69244;SDS011;56357;52.304;4.870;2023-02-28T00:24:24;3.03;;;0.30;;
69244;SDS011;56357;52.304;4.870;2023-02-28T00:26:50;2.38;;;0.30;;
69244;SDS011;56357;52.304;4.870;2023-02-28T00:29:17;3.30;;;0.55;;
69244;SDS011;56357;52.304;4.870;2023-02-28T00:31:43;3.22;;;0.75;;
69244;SDS011;56357;52.304;4.870;2023-02-28T00:34:09;2.67;;;0.35;;
69244;SDS011;56357;52.304;4.870;2023-02-28T00:36:36;2.53;;;0.30;;
69244;SDS011;56357;52.304;4.870;2023-02-28T00:39:03;1.95;;;0.28;;
69244;SDS011;56357;52.304;4.870;2023-02-28T00:41:29;3.47;;;0.40;;
69244;SDS011;56357;52.304;4.870;2023-02-28T00:43:55;2.08;;;0.30;;
69244;SDS011;56357;52.304;4.870;2023-02-28T00:46:22;4.35;;;0.50;;
69244;SDS011;56357;52.304;4.870;2023-02-28T00:48:48;2.90;;;0.30;;
69244;SDS011;56357;52.304;4.870;2023-02-28T00:51:15;2.85;;;0.40;;
69244;SDS011;56357;52.304;4.870;2023-02-28T00:53:41;2.13;;;0.30;;
69244;SDS011;56357;52.304;4.870;2023-02-28T00:56:08;1.75;;;0.30;;
69244;SDS011;56357;52.304;4.870;2023-02-28T00:58:34;3.92;;;0.40;;
69244;SDS011;56357;52.304;4.870;2023-02-28T01:01:00;2.87;;;0.40;;
69244;SDS011;56357;52.304;4.870;2023-02-28T01:03:27;2.28;;;0.30;;
69244;SDS011;56357;52.304;4.870;2023-02-28T01:05:53;2.63;;;0.40;;
69244;SDS011;56357;52.304;4.870;2023-02-28T01:08:20;2.10;;;0.45;;
69244;SDS011;56357;52.304;4.870;2023-02-28T01:10:47;3.42;;;0.30;;
69244;SDS011;56357;52.304;4.870;2023-02-28T01:13:14;2.00;;;0.27;;
69244;SDS011;56357;52.304;4.870;2023-02-28T01:15:42;2.05;;;0.20;;
69244;SDS011;56357;52.304;4.870;2023-02-28T01:18:11;3.53;;;0.40;;
69244;SDS011;56357;52.304;4.870;2023-02-28T01:20:38;2.60;;;0.30;;
69244;SDS011;56357;52.304;4.870;2023-02-28T01:23:04;3.08;;;0.30;;
69244;SDS011;56357;52.304;4.870;2023-02-28T01:25:33;2.40;;;0.30;;
69244;SDS011;56357;52.304;4.870;2023-02-28T01:28:01;3.17;;;0.30;;
69244;SDS011;56357;52.304;4.870;2023-02-28T01:30:27;2.88;;;0.52;;
69244;SDS011;56357;52.304;4.870;2023-02-28T01:32:54;2.85;;;0.35;;
69244;SDS011;56357;52.304;4.870;2023-02-28T01:35:20;2.92;;;0.32;;
69244;SDS011;56357;52.304;4.870;2023-02-28T01:37:47;2.80;;;0.30;;
69244;SDS011;56357;52.304;4.870;2023-02-28T01:40:13;3.13;;;0.40;;
69244;SDS011;56357;52.304;4.870;2023-02-28T01:42:40;3.67;;;0.50;;
69244;SDS011;56357;52.304;4.870;2023-02-28T01:45:28;3.22;;;0.50;;
69244;SDS011;56357;52.304;4.870;2023-02-28T01:47:58;2.03;;;0.30;;
69244;SDS011;56357;52.304;4.870;2023-02-28T01:50:29;2.80;;;0.40;;
69244;SDS011;56357;52.304;4.870;2023-02-28T01:53:01;2.50;;;0.20;;
69244;SDS011;56357;52.304;4.870;2023-02-28T01:55:32;3.22;;;0.40;;
69244;SDS011;56357;52.304;4.870;2023-02-28T01:58:01;2.70;;;0.30;;
69244;SDS011;56357;52.304;4.870;2023-02-28T02:00:28;2.47;;;0.40;;
69244;SDS011;56357;52.304;4.870;2023-02-28T02:02:57;3.00;;;0.40;;
69244;SDS011;56357;52.304;4.870;2023-02-28T02:05:26;3.40;;;0.40;;
69244;SDS011;56357;52.304;4.870;2023-02-28T02:07:56;2.33;;;0.35;;
69244;SDS011;56357;52.304;4.870;2023-02-28T02:16:04;2.50;;;0.40;;
69244;SDS011;56357;52.304;4.870;2023-02-28T02:18:48;4.15;;;0.50;;
69244;SDS011;56357;52.304;4.870;2023-02-28T02:27:32;2.75;;;0.50;;
69244;SDS011;56357;52.304;4.870;2023-02-28T02:30:31;2.80;;;0.30;;
69244;SDS011;56357;52.304;4.870;2023-02-28T02:35:56;3.70;;;0.40;;
69244;SDS011;56357;52.304;4.870;2023-02-28T02:38:38;2.90;;;0.47;;
69244;SDS011;56357;52.304;4.870;2023-02-28T02:41:41;2.50;;;0.32;;
69244;SDS011;56357;52.304;4.870;2023-02-28T02:47:15;3.15;;;0.40;;
69244;SDS011;56357;52.304;4.870;2023-02-28T02:49:50;3.53;;;0.60;;
69244;SDS011;56357;52.304;4.870;2023-02-28T02:52:18;3.05;;;0.50;;
69244;SDS011;56357;52.304;4.870;2023-02-28T02:54:50;2.85;;;0.30;;
69244;SDS011;56357;52.304;4.870;2023-02-28T02:57:24;2.87;;;0.40;;
69244;SDS011;56357;52.304;4.870;2023-02-28T03:00:02;3.53;;;0.65;;
69244;SDS011;56357;52.304;4.870;2023-02-28T03:02:33;3.50;;;0.38;;
69244;SDS011;56357;52.304;4.870;2023-02-28T03:05:06;3.88;;;0.40;;
69244;SDS011;56357;52.304;4.870;2023-02-28T03:07:40;3.30;;;0.50;;
69244;SDS011;56357;52.304;4.870;2023-02-28T03:10:29;4.30;;;0.40;;
69244;SDS011;56357;52.304;4.870;2023-02-28T03:21:40;3.75;;;0.50;;
69244;SDS011;56357;52.304;4.870;2023-02-28T03:25:00;3.07;;;0.30;;
69244;SDS011;56357;52.304;4.870;2023-02-28T03:27:17;2.75;;;0.40;;
69244;SDS011;56357;52.304;4.870;2023-02-28T03:29:51;2.25;;;0.35;;
69244;SDS011;56357;52.304;4.870;2023-02-28T03:32:33;3.05;;;0.45;;
69244;SDS011;56357;52.304;4.870;2023-02-28T03:37:40;4.13;;;0.50;;
69244;SDS011;56357;52.304;4.870;2023-02-28T03:40:13;3.97;;;0.55;;
69244;SDS011;56357;52.304;4.870;2023-02-28T03:42:44;3.35;;;0.50;;
69244;SDS011;56357;52.304;4.870;2023-02-28T03:45:18;2.15;;;0.40;;
69244;SDS011;56357;52.304;4.870;2023-02-28T03:47:58;3.72;;;0.70;;
69244;SDS011;56357;52.304;4.870;2023-02-28T03:50:34;3.13;;;0.50;;
69244;SDS011;56357;52.304;4.870;2023-02-28T03:53:07;3.15;;;0.30;;
69244;SDS011;56357;52.304;4.870;2023-02-28T03:55:39;3.03;;;0.63;;
69244;SDS011;56357;52.304;4.870;2023-02-28T03:58:18;2.47;;;0.30;;
69244;SDS011;56357;52.304;4.870;2023-02-28T04:00:46;3.55;;;0.40;;
69244;SDS011;56357;52.304;4.870;2023-02-28T04:03:18;2.67;;;0.37;;
69244;SDS011;56357;52.304;4.870;2023-02-28T04:05:54;2.83;;;0.40;;
69244;SDS011;56357;52.304;4.870;2023-02-28T04:08:22;2.78;;;0.40;;
69244;SDS011;56357;52.304;4.870;2023-02-28T04:11:11;3.25;;;0.50;;
69244;SDS011;56357;52.304;4.870;2023-02-28T04:13:44;2.58;;;0.35;;
69244;SDS011;56357;52.304;4.870;2023-02-28T04:16:10;2.93;;;0.40;;
69244;SDS011;56357;52.304;4.870;2023-02-28T04:18:40;3.08;;;0.40;;
69244;SDS011;56357;52.304;4.870;2023-02-28T04:21:08;2.50;;;0.35;;
69244;SDS011;56357;52.304;4.870;2023-02-28T04:23:36;2.63;;;0.40;;
69244;SDS011;56357;52.304;4.870;2023-02-28T04:26:02;4.40;;;0.50;;
69244;SDS011;56357;52.304;4.870;2023-02-28T04:28:30;3.37;;;0.37;;
69244;SDS011;56357;52.304;4.870;2023-02-28T04:31:01;2.38;;;0.32;;
69244;SDS011;56357;52.304;4.870;2023-02-28T04:33:30;3.55;;;0.40;;
69244;SDS011;56357;52.304;4.870;2023-02-28T04:36:01;5.85;;;0.85;;
69244;SDS011;56357;52.304;4.870;2023-02-28T04:38:32;2.92;;;0.43;;
69244;SDS011;56357;52.304;4.870;2023-02-28T04:40:59;3.77;;;0.43;;
69244;SDS011;56357;52.304;4.870;2023-02-28T04:43:27;3.88;;;0.40;;
69244;SDS011;56357;52.304;4.870;2023-02-28T04:45:54;3.30;;;0.60;;
69244;SDS011;56357;52.304;4.870;2023-02-28T04:48:26;3.53;;;0.47;;
69244;SDS011;56357;52.304;4.870;2023-02-28T04:50:54;3.35;;;0.40;;
69244;SDS011;56357;52.304;4.870;2023-02-28T04:53:21;2.90;;;0.40;;
69244;SDS011;56357;52.304;4.870;2023-02-28T04:55:47;3.85;;;0.52;;
69244;SDS011;56357;52.304;4.870;2023-02-28T04:58:14;3.38;;;0.50;;
69244;SDS011;56357;52.304;4.870;2023-02-28T05:00:41;2.83;;;0.40;;
69244;SDS011;56357;52.304;4.870;2023-02-28T05:03:07;2.92;;;0.60;;
69244;SDS011;56357;52.304;4.870;2023-02-28T05:05:34;4.40;;;0.60;;
69244;SDS011;56357;52.304;4.870;2023-02-28T05:08:01;2.75;;;0.40;;
69244;SDS011;56357;52.304;4.870;2023-02-28T05:10:27;3.00;;;0.40;;
69244;SDS011;56357;52.304;4.870;2023-02-28T05:12:54;3.25;;;0.50;;
69244;SDS011;56357;52.304;4.870;2023-02-28T05:15:21;3.50;;;0.50;;
69244;SDS011;56357;52.304;4.870;2023-02-28T05:17:47;3.40;;;0.50;;
69244;SDS011;56357;52.304;4.870;2023-02-28T05:20:14;2.78;;;0.30;;
69244;SDS011;56357;52.304;4.870;2023-02-28T05:22:40;3.55;;;0.65;;
69244;SDS011;56357;52.304;4.870;2023-02-28T05:25:08;3.72;;;0.50;;
69244;SDS011;56357;52.304;4.870;2023-02-28T05:27:38;3.20;;;0.50;;
69244;SDS011;56357;52.304;4.870;2023-02-28T05:30:05;2.73;;;0.30;;
69244;SDS011;56357;52.304;4.870;2023-02-28T05:32:35;2.92;;;0.40;;
69244;SDS011;56357;52.304;4.870;2023-02-28T05:35:07;2.60;;;0.50;;
69244;SDS011;56357;52.304;4.870;2023-02-28T05:37:36;1.95;;;0.30;;
69244;SDS011;56357;52.304;4.870;2023-02-28T05:40:03;3.33;;;0.55;;
69244;SDS011;56357;52.304;4.870;2023-02-28T05:42:32;2.77;;;0.50;;
69244;SDS011;56357;52.304;4.870;2023-02-28T05:44:59;2.88;;;0.40;;
69244;SDS011;56357;52.304;4.870;2023-02-28T05:47:26;2.85;;;0.40;;
69244;SDS011;56357;52.304;4.870;2023-02-28T05:49:52;3.00;;;0.40;;
69244;SDS011;56357;52.304;4.870;2023-02-28T05:52:18;2.58;;;0.30;;
69244;SDS011;56357;52.304;4.870;2023-02-28T05:54:46;2.93;;;0.50;;
69244;SDS011;56357;52.304;4.870;2023-02-28T05:57:12;2.85;;;0.50;;
69244;SDS011;56357;52.304;4.870;2023-02-28T05:59:39;3.60;;;0.52;;
69244;SDS011;56357;52.304;4.870;2023-02-28T06:02:06;4.07;;;0.50;;
69244;SDS011;56357;52.304;4.870;2023-02-28T06:04:40;3.95;;;0.85;;
69244;SDS011;56357;52.304;4.870;2023-02-28T06:07:08;5.13;;;1.07;;
69244;SDS011;56357;52.304;4.870;2023-02-28T06:09:35;4.03;;;0.60;;
69244;SDS011;56357;52.304;4.870;2023-02-28T06:12:02;5.32;;;0.70;;
69244;SDS011;56357;52.304;4.870;2023-02-28T06:14:32;4.57;;;0.80;;
69244;SDS011;56357;52.304;4.870;2023-02-28T06:17:00;3.65;;;0.57;;
69244;SDS011;56357;52.304;4.870;2023-02-28T06:19:27;2.77;;;0.53;;
69244;SDS011;56357;52.304;4.870;2023-02-28T06:21:55;3.13;;;0.60;;
69244;SDS011;56357;52.304;4.870;2023-02-28T06:24:23;2.78;;;0.60;;
69244;SDS011;56357;52.304;4.870;2023-02-28T06:26:52;2.85;;;0.50;;
69244;SDS011;56357;52.304;4.870;2023-02-28T06:29:19;4.22;;;0.70;;
69244;SDS011;56357;52.304;4.870;2023-02-28T06:31:46;3.20;;;0.60;;
69244;SDS011;56357;52.304;4.870;2023-02-28T06:34:13;3.20;;;0.63;;
69244;SDS011;56357;52.304;4.870;2023-02-28T06:36:40;6.60;;;0.57;;
69244;SDS011;56357;52.304;4.870;2023-02-28T06:39:08;4.03;;;0.85;;
69244;SDS011;56357;52.304;4.870;2023-02-28T06:41:35;5.47;;;0.70;;
69244;SDS011;56357;52.304;4.870;2023-02-28T06:44:05;3.20;;;0.70;;
69244;SDS011;56357;52.304;4.870;2023-02-28T06:46:38;3.30;;;0.52;;
69244;SDS011;56357;52.304;4.870;2023-02-28T06:49:08;5.15;;;0.70;;
69244;SDS011;56357;52.304;4.870;2023-02-28T06:51:36;5.95;;;0.70;;
69244;SDS011;56357;52.304;4.870;2023-02-28T06:54:05;3.53;;;0.63;;
69244;SDS011;56357;52.304;4.870;2023-02-28T06:56:34;3.87;;;0.90;;
69244;SDS011;56357;52.304;4.870;2023-02-28T06:59:01;3.65;;;0.90;;
69244;SDS011;56357;52.304;4.870;2023-02-28T07:01:28;4.40;;;1.10;;
69244;SDS011;56357;52.304;4.870;2023-02-28T07:03:56;4.22;;;0.98;;
69244;SDS011;56357;52.304;4.870;2023-02-28T07:06:23;5.70;;;1.23;;
69244;SDS011;56357;52.304;4.870;2023-02-28T07:08:50;5.83;;;0.90;;
69244;SDS011;56357;52.304;4.870;2023-02-28T07:11:18;7.13;;;1.70;;
69244;SDS011;56357;52.304;4.870;2023-02-28T07:13:47;5.65;;;1.33;;
69244;SDS011;56357;52.304;4.870;2023-02-28T07:16:14;5.18;;;1.52;;
69244;SDS011;56357;52.304;4.870;2023-02-28T07:18:40;5.05;;;1.20;;
69244;SDS011;56357;52.304;4.870;2023-02-28T07:21:08;6.00;;;1.60;;
69244;SDS011;56357;52.304;4.870;2023-02-28T07:23:35;6.60;;;1.20;;
69244;SDS011;56357;52.304;4.870;2023-02-28T07:26:04;5.40;;;1.30;;
69244;SDS011;56357;52.304;4.870;2023-02-28T07:28:32;6.53;;;1.15;;
69244;SDS011;56357;52.304;4.870;2023-02-28T07:31:05;6.78;;;1.45;;
69244;SDS011;56357;52.304;4.870;2023-02-28T07:33:33;7.03;;;1.00;;
69244;SDS011;56357;52.304;4.870;2023-02-28T07:36:03;5.80;;;1.60;;
69244;SDS011;56357;52.304;4.870;2023-02-28T07:38:35;7.22;;;1.70;;
69244;SDS011;56357;52.304;4.870;2023-02-28T07:41:02;8.38;;;1.20;;
69244;SDS011;56357;52.304;4.870;2023-02-28T07:43:30;4.55;;;1.00;;
69244;SDS011;56357;52.304;4.870;2023-02-28T07:46:04;5.17;;;1.03;;
69244;SDS011;56357;52.304;4.870;2023-02-28T07:48:32;5.70;;;0.90;;
69244;SDS011;56357;52.304;4.870;2023-02-28T07:50:59;3.72;;;1.10;;
69244;SDS011;56357;52.304;4.870;2023-02-28T07:53:26;5.88;;;1.02;;
69244;SDS011;56357;52.304;4.870;2023-02-28T07:55:57;5.80;;;1.20;;
69244;SDS011;56357;52.304;4.870;2023-02-28T07:58:24;4.60;;;1.20;;
69244;SDS011;56357;52.304;4.870;2023-02-28T08:00:51;5.72;;;1.10;;
69244;SDS011;56357;52.304;4.870;2023-02-28T08:03:18;5.35;;;1.00;;
69244;SDS011;56357;52.304;4.870;2023-02-28T08:05:46;8.32;;;0.52;;
69244;SDS011;56357;52.304;4.870;2023-02-28T08:08:14;8.23;;;1.00;;
69244;SDS011;56357;52.304;4.870;2023-02-28T08:10:41;4.87;;;0.87;;
69244;SDS011;56357;52.304;4.870;2023-02-28T08:13:09;10.93;;;1.08;;
69244;SDS011;56357;52.304;4.870;2023-02-28T08:15:35;9.18;;;0.90;;
69244;SDS011;56357;52.304;4.870;2023-02-28T08:18:02;8.25;;;0.70;;
69244;SDS011;56357;52.304;4.870;2023-02-28T08:20:28;8.85;;;0.90;;
69244;SDS011;56357;52.304;4.870;2023-02-28T08:22:55;5.00;;;0.70;;
69244;SDS011;56357;52.304;4.870;2023-02-28T08:25:22;6.82;;;1.23;;
69244;SDS011;56357;52.304;4.870;2023-02-28T08:27:50;5.30;;;0.80;;
69244;SDS011;56357;52.304;4.870;2023-02-28T08:30:17;8.88;;;0.93;;
69244;SDS011;56357;52.304;4.870;2023-02-28T08:32:44;7.65;;;1.15;;
69244;SDS011;56357;52.304;4.870;2023-02-28T08:35:11;8.07;;;0.90;;
69244;SDS011;56357;52.304;4.870;2023-02-28T08:37:37;7.45;;;0.90;;
69244;SDS011;56357;52.304;4.870;2023-02-28T08:40:04;6.25;;;0.85;;
69244;SDS011;56357;52.304;4.870;2023-02-28T08:42:31;7.65;;;1.10;;
69244;SDS011;56357;52.304;4.870;2023-02-28T08:44:58;12.75;;;1.30;;
69244;SDS011;56357;52.304;4.870;2023-02-28T08:47:25;6.27;;;0.87;;
69244;SDS011;56357;52.304;4.870;2023-02-28T08:49:51;9.48;;;1.83;;
69244;SDS011;56357;52.304;4.870;2023-02-28T08:52:18;7.85;;;1.50;;
69244;SDS011;56357;52.304;4.870;2023-02-28T08:54:44;4.50;;;1.08;;
69244;SDS011;56357;52.304;4.870;2023-02-28T08:57:11;9.32;;;1.10;;
69244;SDS011;56357;52.304;4.870;2023-02-28T08:59:37;7.77;;;0.97;;
69244;SDS011;56357;52.304;4.870;2023-02-28T09:02:04;7.50;;;0.70;;
69244;SDS011;56357;52.304;4.870;2023-02-28T09:04:30;6.72;;;0.85;;
69244;SDS011;56357;52.304;4.870;2023-02-28T09:06:57;5.47;;;1.10;;
69244;SDS011;56357;52.304;4.870;2023-02-28T09:09:23;4.93;;;1.13;;
69244;SDS011;56357;52.304;4.870;2023-02-28T09:11:50;5.43;;;0.80;;
69244;SDS011;56357;52.304;4.870;2023-02-28T09:14:16;4.80;;;0.70;;
69244;SDS011;56357;52.304;4.870;2023-02-28T09:16:43;10.32;;;1.27;;
69244;SDS011;56357;52.304;4.870;2023-02-28T09:19:10;6.93;;;1.00;;
69244;SDS011;56357;52.304;4.870;2023-02-28T09:21:37;4.60;;;0.90;;
69244;SDS011;56357;52.304;4.870;2023-02-28T09:24:04;5.40;;;1.30;;
69244;SDS011;56357;52.304;4.870;2023-02-28T09:26:31;5.38;;;1.45;;
69244;SDS011;56357;52.304;4.870;2023-02-28T09:28:57;5.80;;;1.35;;
69244;SDS011;56357;52.304;4.870;2023-02-28T09:31:25;5.18;;;1.25;;
69244;SDS011;56357;52.304;4.870;2023-02-28T09:33:55;5.00;;;1.33;;
69244;SDS011;56357;52.304;4.870;2023-02-28T09:36:24;4.33;;;1.30;;
69244;SDS011;56357;52.304;4.870;2023-02-28T09:38:51;5.57;;;1.20;;
69244;SDS011;56357;52.304;4.870;2023-02-28T09:41:22;4.05;;;1.00;;
69244;SDS011;56357;52.304;4.870;2023-02-28T09:43:55;4.75;;;1.20;;
69244;SDS011;56357;52.304;4.870;2023-02-28T09:46:25;6.10;;;1.27;;
69244;SDS011;56357;52.304;4.870;2023-02-28T09:49:02;4.73;;;1.50;;
69244;SDS011;56357;52.304;4.870;2023-02-28T09:54:30;5.50;;;1.63;;
69244;SDS011;56357;52.304;4.870;2023-02-28T10:04:51;5.78;;;1.38;;
69244;SDS011;56357;52.304;4.870;2023-02-28T10:10:25;5.45;;;1.10;;
69244;SDS011;56357;52.304;4.870;2023-02-28T10:12:57;4.50;;;1.15;;
69244;SDS011;56357;52.304;4.870;2023-02-28T10:15:27;5.03;;;1.07;;
69244;SDS011;56357;52.304;4.870;2023-02-28T10:17:58;3.80;;;0.82;;
69244;SDS011;56357;52.304;4.870;2023-02-28T10:20:28;4.13;;;0.80;;
69244;SDS011;56357;52.304;4.870;2023-02-28T10:23:01;3.28;;;0.70;;
69244;SDS011;56357;52.304;4.870;2023-02-28T10:25:35;3.50;;;0.95;;
69244;SDS011;56357;52.304;4.870;2023-02-28T10:28:13;3.73;;;0.77;;
69244;SDS011;56357;52.304;4.870;2023-02-28T10:30:52;3.10;;;0.70;;
69244;SDS011;56357;52.304;4.870;2023-02-28T10:33:33;4.95;;;0.77;;
69244;SDS011;56357;52.304;4.870;2023-02-28T10:36:02;3.95;;;0.40;;
69244;SDS011;56357;52.304;4.870;2023-02-28T10:38:35;4.53;;;0.80;;
69244;SDS011;56357;52.304;4.870;2023-02-28T10:41:07;3.60;;;0.70;;
69244;SDS011;56357;52.304;4.870;2023-02-28T10:43:39;3.40;;;0.70;;
69244;SDS011;56357;52.304;4.870;2023-02-28T10:48:43;5.25;;;0.75;;
69244;SDS011;56357;52.304;4.870;2023-02-28T10:51:14;4.53;;;1.10;;
69244;SDS011;56357;52.304;4.870;2023-02-28T10:53:50;3.67;;;0.53;;
69244;SDS011;56357;52.304;4.870;2023-02-28T10:56:22;3.35;;;0.60;;
69244;SDS011;56357;52.304;4.870;2023-02-28T10:58:52;5.55;;;0.98;;
69244;SDS011;56357;52.304;4.870;2023-02-28T11:01:20;7.38;;;0.65;;
69244;SDS011;56357;52.304;4.870;2023-02-28T11:03:56;4.18;;;0.70;;
69244;SDS011;56357;52.304;4.870;2023-02-28T11:06:24;4.93;;;0.87;;
69244;SDS011;56357;52.304;4.870;2023-02-28T11:08:57;2.97;;;0.50;;
69244;SDS011;56357;52.304;4.870;2023-02-28T11:11:26;5.53;;;0.77;;
69244;SDS011;56357;52.304;4.870;2023-02-28T11:13:57;3.88;;;0.60;;
69244;SDS011;56357;52.304;4.870;2023-02-28T11:16:33;2.70;;;0.57;;
69244;SDS011;56357;52.304;4.870;2023-02-28T11:19:02;3.20;;;0.60;;
69244;SDS011;56357;52.304;4.870;2023-02-28T11:21:33;4.57;;;0.85;;
69244;SDS011;56357;52.304;4.870;2023-02-28T11:24:06;4.28;;;0.88;;
69244;SDS011;56357;52.304;4.870;2023-02-28T11:26:47;4.45;;;0.65;;
69244;SDS011;56357;52.304;4.870;2023-02-28T11:29:19;4.47;;;0.63;;
69244;SDS011;56357;52.304;4.870;2023-02-28T11:34:38;4.72;;;0.65;;
69244;SDS011;56357;52.304;4.870;2023-02-28T11:37:09;4.38;;;0.60;;
69244;SDS011;56357;52.304;4.870;2023-02-28T11:39:38;4.60;;;0.80;;
69244;SDS011;56357;52.304;4.870;2023-02-28T11:45:22;6.40;;;0.60;;
69244;SDS011;56357;52.304;4.870;2023-02-28T11:51:10;4.43;;;0.40;;
69244;SDS011;56357;52.304;4.870;2023-02-28T11:54:04;3.58;;;0.50;;
69244;SDS011;56357;52.304;4.870;2023-02-28T11:56:54;4.45;;;0.50;;
69244;SDS011;56357;52.304;4.870;2023-02-28T11:59:31;4.17;;;0.50;;
69244;SDS011;56357;52.304;4.870;2023-02-28T12:10:24;3.22;;;0.52;;
69244;SDS011;56357;52.304;4.870;2023-02-28T12:23:52;4.40;;;0.50;;
69244;SDS011;56357;52.304;4.870;2023-02-28T12:26:47;3.10;;;0.40;;
69244;SDS011;56357;52.304;4.870;2023-02-28T12:29:28;4.55;;;0.85;;
69244;SDS011;56357;52.304;4.870;2023-02-28T12:37:41;2.63;;;0.50;;
69244;SDS011;56357;52.304;4.870;2023-02-28T12:40:17;7.47;;;0.60;;
69244;SDS011;56357;52.304;4.870;2023-02-28T12:42:51;8.10;;;0.60;;
69244;SDS011;56357;52.304;4.870;2023-02-28T12:47:57;4.63;;;0.60;;
69244;SDS011;56357;52.304;4.870;2023-02-28T12:50:30;8.35;;;0.47;;
69244;SDS011;56357;52.304;4.870;2023-02-28T12:53:21;4.90;;;0.97;;
69244;SDS011;56357;52.304;4.870;2023-02-28T13:09:51;6.90;;;0.80;;
69244;SDS011;56357;52.304;4.870;2023-02-28T13:12:19;4.15;;;0.70;;
69244;SDS011;56357;52.304;4.870;2023-02-28T13:14:47;4.97;;;0.70;;
69244;SDS011;56357;52.304;4.870;2023-02-28T13:17:21;4.88;;;0.85;;
69244;SDS011;56357;52.304;4.870;2023-02-28T13:22:35;5.22;;;0.95;;
69244;SDS011;56357;52.304;4.870;2023-02-28T13:27:50;5.18;;;0.57;;
69244;SDS011;56357;52.304;4.870;2023-02-28T13:36:27;4.07;;;0.50;;
69244;SDS011;56357;52.304;4.870;2023-02-28T13:38:48;5.35;;;0.75;;
69244;SDS011;56357;52.304;4.870;2023-02-28T13:41:59;3.35;;;0.73;;
69244;SDS011;56357;52.304;4.870;2023-02-28T13:51:50;5.20;;;0.80;;
69244;SDS011;56357;52.304;4.870;2023-02-28T14:03:18;3.05;;;0.60;;
69244;SDS011;56357;52.304;4.870;2023-02-28T14:06:22;2.75;;;0.60;;
69244;SDS011;56357;52.304;4.870;2023-02-28T14:11:34;2.83;;;0.60;;
69244;SDS011;56357;52.304;4.870;2023-02-28T14:14:03;5.57;;;0.70;;
69244;SDS011;56357;52.304;4.870;2023-02-28T14:22:00;2.67;;;0.50;;
69244;SDS011;56357;52.304;4.870;2023-02-28T14:24:33;2.85;;;0.60;;
69244;SDS011;56357;52.304;4.870;2023-02-28T14:27:26;3.97;;;0.70;;
69244;SDS011;56357;52.304;4.870;2023-02-28T14:35:50;2.75;;;0.63;;
69244;SDS011;56357;52.304;4.870;2023-02-28T14:38:32;2.60;;;0.57;;
69244;SDS011;56357;52.304;4.870;2023-02-28T14:41:03;3.70;;;0.70;;
69244;SDS011;56357;52.304;4.870;2023-02-28T14:43:46;3.80;;;0.70;;
69244;SDS011;56357;52.304;4.870;2023-02-28T14:46:14;3.13;;;0.55;;
69244;SDS011;56357;52.304;4.870;2023-02-28T14:48:45;5.32;;;0.50;;
69244;SDS011;56357;52.304;4.870;2023-02-28T14:51:13;3.42;;;0.60;;
69244;SDS011;56357;52.304;4.870;2023-02-28T14:53:46;3.50;;;0.87;;
69244;SDS011;56357;52.304;4.870;2023-02-28T14:56:20;3.63;;;0.60;;
69244;SDS011;56357;52.304;4.870;2023-02-28T14:58:52;3.20;;;0.60;;
69244;SDS011;56357;52.304;4.870;2023-02-28T15:01:21;5.63;;;0.63;;
69244;SDS011;56357;52.304;4.870;2023-02-28T15:03:56;2.85;;;0.50;;
69244;SDS011;56357;52.304;4.870;2023-02-28T15:06:24;7.23;;;0.70;;
69244;SDS011;56357;52.304;4.870;2023-02-28T15:09:13;3.70;;;0.70;;
69244;SDS011;56357;52.304;4.870;2023-02-28T15:11:41;4.80;;;0.82;;
69244;SDS011;56357;52.304;4.870;2023-02-28T15:14:15;4.55;;;0.60;;
69244;SDS011;56357;52.304;4.870;2023-02-28T15:16:46;4.07;;;0.75;;
69244;SDS011;56357;52.304;4.870;2023-02-28T15:19:20;4.47;;;0.70;;
69244;SDS011;56357;52.304;4.870;2023-02-28T15:21:49;3.78;;;0.80;;
69244;SDS011;56357;52.304;4.870;2023-02-28T15:27:15;4.30;;;0.52;;
69244;SDS011;56357;52.304;4.870;2023-02-28T15:29:48;5.35;;;0.80;;
69244;SDS011;56357;52.304;4.870;2023-02-28T15:32:24;4.30;;;0.83;;
69244;SDS011;56357;52.304;4.870;2023-02-28T15:34:51;3.72;;;0.50;;
69244;SDS011;56357;52.304;4.870;2023-02-28T15:40:18;3.65;;;0.70;;
69244;SDS011;56357;52.304;4.870;2023-02-28T15:45:59;5.67;;;0.80;;
69244;SDS011;56357;52.304;4.870;2023-02-28T15:48:30;3.35;;;0.68;;
69244;SDS011;56357;52.304;4.870;2023-02-28T15:51:09;3.97;;;0.85;;
69244;SDS011;56357;52.304;4.870;2023-02-28T15:53:46;4.00;;;0.88;;
69244;SDS011;56357;52.304;4.870;2023-02-28T15:56:23;5.97;;;1.17;;
69244;SDS011;56357;52.304;4.870;2023-02-28T15:58:55;11.17;;;1.13;;
69244;SDS011;56357;52.304;4.870;2023-02-28T16:01:33;12.25;;;1.30;;
69244;SDS011;56357;52.304;4.870;2023-02-28T16:04:03;10.52;;;1.05;;
69244;SDS011;56357;52.304;4.870;2023-02-28T16:06:41;7.88;;;0.90;;
69244;SDS011;56357;52.304;4.870;2023-02-28T16:09:10;9.95;;;0.80;;
69244;SDS011;56357;52.304;4.870;2023-02-28T16:11:45;7.77;;;1.53;;
69244;SDS011;56357;52.304;4.870;2023-02-28T16:14:14;10.05;;;0.80;;
69244;SDS011;56357;52.304;4.870;2023-02-28T16:16:43;6.57;;;0.88;;
69244;SDS011;56357;52.304;4.870;2023-02-28T16:19:15;4.03;;;0.70;;
69244;SDS011;56357;52.304;4.870;2023-02-28T16:21:41;6.35;;;0.73;;
69244;SDS011;56357;52.304;4.870;2023-02-28T16:24:08;5.03;;;0.60;;
69244;SDS011;56357;52.304;4.870;2023-02-28T16:26:34;8.85;;;0.90;;
69244;SDS011;56357;52.304;4.870;2023-02-28T16:29:04;4.68;;;0.80;;
69244;SDS011;56357;52.304;4.870;2023-02-28T16:31:33;4.75;;;0.60;;
69244;SDS011;56357;52.304;4.870;2023-02-28T16:34:02;5.35;;;0.60;;
69244;SDS011;56357;52.304;4.870;2023-02-28T16:36:29;4.00;;;0.60;;
69244;SDS011;56357;52.304;4.870;2023-02-28T16:38:56;5.30;;;0.73;;
69244;SDS011;56357;52.304;4.870;2023-02-28T16:41:26;4.05;;;0.80;;
69244;SDS011;56357;52.304;4.870;2023-02-28T16:43:54;6.88;;;0.60;;
69244;SDS011;56357;52.304;4.870;2023-02-28T16:46:27;5.15;;;0.80;;
69244;SDS011;56357;52.304;4.870;2023-02-28T16:48:57;6.73;;;0.90;;
69244;SDS011;56357;52.304;4.870;2023-02-28T16:51:23;3.70;;;0.90;;
69244;SDS011;56357;52.304;4.870;2023-02-28T16:53:50;4.90;;;0.93;;
69244;SDS011;56357;52.304;4.870;2023-02-28T16:56:20;4.55;;;0.60;;
69244;SDS011;56357;52.304;4.870;2023-02-28T16:58:49;5.05;;;0.73;;
69244;SDS011;56357;52.304;4.870;2023-02-28T17:01:17;3.87;;;0.53;;
69244;SDS011;56357;52.304;4.870;2023-02-28T17:03:47;5.82;;;0.55;;
69244;SDS011;56357;52.304;4.870;2023-02-28T17:06:23;5.22;;;0.90;;
69244;SDS011;56357;52.304;4.870;2023-02-28T17:08:52;4.68;;;0.60;;
69244;SDS011;56357;52.304;4.870;2023-02-28T17:11:19;5.85;;;0.80;;
69244;SDS011;56357;52.304;4.870;2023-02-28T17:13:47;3.70;;;0.60;;
69244;SDS011;56357;52.304;4.870;2023-02-28T17:18:58;4.00;;;0.60;;
69244;SDS011;56357;52.304;4.870;2023-02-28T17:21:29;3.83;;;0.60;;
69244;SDS011;56357;52.304;4.870;2023-02-28T17:23:58;7.40;;;1.13;;
69244;SDS011;56357;52.304;4.870;2023-02-28T17:26:25;4.23;;;0.80;;
69244;SDS011;56357;52.304;4.870;2023-02-28T17:28:52;4.22;;;0.80;;
69244;SDS011;56357;52.304;4.870;2023-02-28T17:31:21;6.57;;;0.93;;
69244;SDS011;56357;52.304;4.870;2023-02-28T17:33:51;4.15;;;0.80;;
69244;SDS011;56357;52.304;4.870;2023-02-28T17:36:23;3.00;;;0.70;;
69244;SDS011;56357;52.304;4.870;2023-02-28T17:38:52;4.00;;;0.50;;